Spirit of New Zealand — ZMSV — position and weather

sailwx.info

Track history (hours):
 
Tides and Currents Weather Stations Pressure Air Temp Water Temp Dewpoint Dewpoint Depression Visibility Wind Speed Wind Dir Waves Ship Positions

Spirit of New Zealand

Last reported at 2019-Apr-20 22:26 UTC. Time now 2019-Apr-25 12:21 UTC.
Position S 36°25' E 174°56'.

Length 37 m; draft 4.1 m.

Type: Passenger vessel. MMSI: 512201000.

Date/timePositionNaut miles runAvg speedWind from/ knotsBaromVisibWave heightAir tempDewpointWater temp
2019-Apr-20 22:26S 36°25' E 174°56'3 6.4
2019-Apr-20 21:55S 36°27' E 174°54'2 0.1
2019-Apr-20 03:18S 36°27' E 174°52'1 3.1
2019-Apr-20 02:58S 36°28' E 174°51'1 1.2
2019-Apr-20 02:29S 36°28' E 174°50'3 1.6
2019-Apr-20 00:36S 36°31' E 174°51'1 5.0
2019-Apr-20 00:26S 36°32' E 174°51'3 6.4
2019-Apr-20 00:00S 36°34' E 174°51'4 7.3
2019-Apr-19 23:30S 36°38' E 174°53'2 3.8
2019-Apr-19 22:56S 36°40' E 174°54'4 6.9
2019-Apr-19 22:20S 36°44' E 174°56'4 8.4
2019-Apr-19 21:53S 36°47' E 174°56'1 3.6
2019-Apr-19 21:30S 36°49' E 174°56'0 0.2
2019-Apr-19 21:00S 36°49' E 174°56'0 0.0
2019-Apr-19 20:30S 36°49' E 174°56'0 0.0
2019-Apr-19 20:00S 36°49' E 174°56'0 0.0
2019-Apr-19 19:30S 36°49' E 174°56'0 0.0
2019-Apr-19 19:00S 36°49' E 174°56'0 0.0
2019-Apr-19 18:30S 36°49' E 174°56'0 0.0
2019-Apr-19 18:00S 36°49' E 174°56'0 0.0
2019-Apr-19 17:30S 36°49' E 174°56'0 0.0
2019-Apr-19 17:00S 36°49' E 174°56'0 0.0
2019-Apr-19 16:30S 36°49' E 174°56'0 0.1
2019-Apr-19 16:00S 36°49' E 174°56'0 0.0
2019-Apr-19 15:30S 36°49' E 174°56'0 0.1
2019-Apr-19 14:48S 36°49' E 174°56'0 0.1
2019-Apr-19 13:57S 36°49' E 174°56'0 0.0
2019-Apr-19 13:30S 36°49' E 174°56'0 0.1
2019-Apr-19 12:57S 36°49' E 174°56'0 0.0
2019-Apr-19 12:30S 36°49' E 174°56'0 0.0
2019-Apr-19 12:00S 36°49' E 174°56'0 0.0
2019-Apr-19 11:30S 36°49' E 174°56'0 0.0
2019-Apr-19 11:00S 36°49' E 174°56'0 0.0
2019-Apr-19 10:30S 36°49' E 174°56'0 0.0
2019-Apr-19 10:00S 36°49' E 174°56'0 0.0
2019-Apr-19 09:30S 36°49' E 174°56'0 0.0
2019-Apr-19 09:00S 36°49' E 174°56'0 0.0
2019-Apr-19 08:30S 36°49' E 174°56'0 0.0
2019-Apr-19 08:00S 36°49' E 174°56'0 0.0
2019-Apr-19 07:30S 36°49' E 174°56'0 0.0
2019-Apr-19 07:00S 36°49' E 174°56'0 0.0
2019-Apr-19 06:30S 36°49' E 174°56'0 0.0
2019-Apr-19 06:00S 36°49' E 174°56'0 0.0
2019-Apr-19 05:30S 36°49' E 174°56'2 4.0
2019-Apr-19 04:55S 36°51' E 174°57'0 0.9
2019-Apr-19 04:27S 36°51' E 174°57'1 1.6
2019-Apr-19 04:00S 36°51' E 174°56'1 2.5
2019-Apr-19 03:30S 36°49' E 174°56'1 0.6
2019-Apr-19 02:26S 36°49' E 174°56'3 6.5
2019-Apr-19 02:00S 36°49' E 174°53'4 7.4
2019-Apr-19 01:30S 36°50' E 174°48'2 0.3
2019-Apr-18 19:11S 36°51' E 174°46'0 0.2
2019-Apr-18 19:00S 36°50' E 174°46'1 1.0
2019-Apr-18 18:30S 36°50' E 174°46'0 0.4
2019-Apr-18 17:56S 36°50' E 174°46'0 0.0
2019-Apr-18 17:29S 36°50' E 174°46'0 0.0
2019-Apr-18 16:59S 36°50' E 174°46'0 0.0
2019-Apr-18 16:29S 36°50' E 174°46'0 0.0
2019-Apr-18 15:59S 36°50' E 174°46'0 0.0
2019-Apr-18 15:29S 36°50' E 174°46'0 0.0
2019-Apr-18 14:56S 36°50' E 174°46'0 0.0
2019-Apr-18 14:29S 36°50' E 174°46'0 0.0
2019-Apr-18 13:59S 36°50' E 174°46'0 0.0
2019-Apr-18 13:29S 36°50' E 174°46'0 0.1
2019-Apr-18 12:59S 36°50' E 174°46'0 0.0
2019-Apr-18 12:29S 36°50' E 174°46'0 0.0
2019-Apr-18 11:59S 36°50' E 174°46'0 0.0
2019-Apr-18 11:29S 36°50' E 174°46'0 0.0
2019-Apr-18 10:59S 36°50' E 174°46'0 0.0
2019-Apr-18 10:29S 36°50' E 174°46'0 0.0
2019-Apr-18 09:59S 36°50' E 174°46'0 0.0
2019-Apr-18 09:29S 36°50' E 174°46'0 0.0
2019-Apr-18 08:59S 36°50' E 174°46'0 0.0
2019-Apr-18 08:29S 36°50' E 174°46'0 0.0
2019-Apr-18 07:59S 36°50' E 174°46'0 0.0
2019-Apr-18 07:29S 36°50' E 174°46'0 0.1
2019-Apr-18 06:59S 36°50' E 174°46'0 0.0
2019-Apr-18 06:29S 36°50' E 174°46'0 0.0
2019-Apr-18 05:59S 36°50' E 174°46'0 0.0
2019-Apr-18 05:29S 36°50' E 174°46'0 0.1
2019-Apr-18 05:00S 36°50' E 174°46'0 0.4
2019-Apr-18 04:30S 36°50' E 174°46'4 7.2
2019-Apr-18 04:00S 36°49' E 174°50'3 5.9
2019-Apr-18 03:27S 36°49' E 174°54'2 1.3
2019-Apr-18 01:39S 36°48' E 174°57'1 3.8
2019-Apr-18 01:30S 36°47' E 174°57'4 3.6
2019-Apr-18 00:20S 36°45' E 175°02'  
2019-Apr-11 23:23S 36°22' E 174°53'6 0.3
2019-Apr-11 04:33S 36°25' E 174°46'2 2.2
2019-Apr-11 03:33S 36°27' E 174°48'0 5.0
2019-Apr-11 03:28S 36°27' E 174°47'2 2.7
2019-Apr-11 02:46S 36°29' E 174°46'1 2.5
2019-Apr-11 02:20S 36°30' E 174°46'2 0.4
2019-Apr-10 22:47S 36°30' E 174°44'0 0.0
2019-Apr-10 22:28S 36°30' E 174°44'  
Track history (hours):
 
Tides and Currents Weather Stations Pressure Air Temp Water Temp Dewpoint Dewpoint Depression Visibility Wind Speed Wind Dir Waves Ship Positions

Spirit of New Zealand

Last reported at 2019-Apr-20 22:26 UTC. Time now 2019-Apr-25 12:21 UTC.
Position S 36°25' E 174°56'.

Length 37 m; draft 4.1 m.

Type: Passenger vessel. MMSI: 512201000.

Date/timePositionNaut miles runAvg speedWind from/ knotsBaromVisibWave heightAir tempDewpointWater temp
2019-Apr-20 22:26S 36°25' E 174°56'3 6.4
2019-Apr-20 21:55S 36°27' E 174°54'2 0.1
2019-Apr-20 03:18S 36°27' E 174°52'1 3.1
2019-Apr-20 02:58S 36°28' E 174°51'1 1.2
2019-Apr-20 02:29S 36°28' E 174°50'3 1.6
2019-Apr-20 00:36S 36°31' E 174°51'1 5.0
2019-Apr-20 00:26S 36°32' E 174°51'3 6.4
2019-Apr-20 00:00S 36°34' E 174°51'4 7.3
2019-Apr-19 23:30S 36°38' E 174°53'2 3.8
2019-Apr-19 22:56S 36°40' E 174°54'4 6.9
2019-Apr-19 22:20S 36°44' E 174°56'4 8.4
2019-Apr-19 21:53S 36°47' E 174°56'1 3.6
2019-Apr-19 21:30S 36°49' E 174°56'0 0.2
2019-Apr-19 21:00S 36°49' E 174°56'0 0.0
2019-Apr-19 20:30S 36°49' E 174°56'0 0.0
2019-Apr-19 20:00S 36°49' E 174°56'0 0.0
2019-Apr-19 19:30S 36°49' E 174°56'0 0.0
2019-Apr-19 19:00S 36°49' E 174°56'0 0.0
2019-Apr-19 18:30S 36°49' E 174°56'0 0.0
2019-Apr-19 18:00S 36°49' E 174°56'0 0.0
2019-Apr-19 17:30S 36°49' E 174°56'0 0.0
2019-Apr-19 17:00S 36°49' E 174°56'0 0.0
2019-Apr-19 16:30S 36°49' E 174°56'0 0.1
2019-Apr-19 16:00S 36°49' E 174°56'0 0.0
2019-Apr-19 15:30S 36°49' E 174°56'0 0.1
2019-Apr-19 14:48S 36°49' E 174°56'0 0.1
2019-Apr-19 13:57S 36°49' E 174°56'0 0.0
2019-Apr-19 13:30S 36°49' E 174°56'0 0.1
2019-Apr-19 12:57S 36°49' E 174°56'0 0.0
2019-Apr-19 12:30S 36°49' E 174°56'0 0.0
2019-Apr-19 12:00S 36°49' E 174°56'0 0.0
2019-Apr-19 11:30S 36°49' E 174°56'0 0.0
2019-Apr-19 11:00S 36°49' E 174°56'0 0.0
2019-Apr-19 10:30S 36°49' E 174°56'0 0.0
2019-Apr-19 10:00S 36°49' E 174°56'0 0.0
2019-Apr-19 09:30S 36°49' E 174°56'0 0.0
2019-Apr-19 09:00S 36°49' E 174°56'0 0.0
2019-Apr-19 08:30S 36°49' E 174°56'0 0.0
2019-Apr-19 08:00S 36°49' E 174°56'0 0.0
2019-Apr-19 07:30S 36°49' E 174°56'0 0.0
2019-Apr-19 07:00S 36°49' E 174°56'0 0.0
2019-Apr-19 06:30S 36°49' E 174°56'0 0.0
2019-Apr-19 06:00S 36°49' E 174°56'0 0.0
2019-Apr-19 05:30S 36°49' E 174°56'2 4.0
2019-Apr-19 04:55S 36°51' E 174°57'0 0.9
2019-Apr-19 04:27S 36°51' E 174°57'1 1.6
2019-Apr-19 04:00S 36°51' E 174°56'1 2.5
2019-Apr-19 03:30S 36°49' E 174°56'1 0.6
2019-Apr-19 02:26S 36°49' E 174°56'3 6.5
2019-Apr-19 02:00S 36°49' E 174°53'4 7.4
2019-Apr-19 01:30S 36°50' E 174°48'2 0.3
2019-Apr-18 19:11S 36°51' E 174°46'0 0.2
2019-Apr-18 19:00S 36°50' E 174°46'1 1.0
2019-Apr-18 18:30S 36°50' E 174°46'0 0.4
2019-Apr-18 17:56S 36°50' E 174°46'0 0.0
2019-Apr-18 17:29S 36°50' E 174°46'0 0.0
2019-Apr-18 16:59S 36°50' E 174°46'0 0.0
2019-Apr-18 16:29S 36°50' E 174°46'0 0.0
2019-Apr-18 15:59S 36°50' E 174°46'0 0.0
2019-Apr-18 15:29S 36°50' E 174°46'0 0.0
2019-Apr-18 14:56S 36°50' E 174°46'0 0.0
2019-Apr-18 14:29S 36°50' E 174°46'0 0.0
2019-Apr-18 13:59S 36°50' E 174°46'0 0.0
2019-Apr-18 13:29S 36°50' E 174°46'0 0.1
2019-Apr-18 12:59S 36°50' E 174°46'0 0.0
2019-Apr-18 12:29S 36°50' E 174°46'0 0.0
2019-Apr-18 11:59S 36°50' E 174°46'0 0.0
2019-Apr-18 11:29S 36°50' E 174°46'0 0.0
2019-Apr-18 10:59S 36°50' E 174°46'0 0.0
2019-Apr-18 10:29S 36°50' E 174°46'0 0.0
2019-Apr-18 09:59S 36°50' E 174°46'0 0.0
2019-Apr-18 09:29S 36°50' E 174°46'0 0.0
2019-Apr-18 08:59S 36°50' E 174°46'0 0.0
2019-Apr-18 08:29S 36°50' E 174°46'0 0.0
2019-Apr-18 07:59S 36°50' E 174°46'0 0.0
2019-Apr-18 07:29S 36°50' E 174°46'0 0.1
2019-Apr-18 06:59S 36°50' E 174°46'0 0.0
2019-Apr-18 06:29S 36°50' E 174°46'0 0.0
2019-Apr-18 05:59S 36°50' E 174°46'0 0.0
2019-Apr-18 05:29S 36°50' E 174°46'0 0.1
2019-Apr-18 05:00S 36°50' E 174°46'0 0.4
2019-Apr-18 04:30S 36°50' E 174°46'4 7.2
2019-Apr-18 04:00S 36°49' E 174°50'3 5.9
2019-Apr-18 03:27S 36°49' E 174°54'2 1.3
2019-Apr-18 01:39S 36°48' E 174°57'1 3.8
2019-Apr-18 01:30S 36°47' E 174°57'4 3.6
2019-Apr-18 00:20S 36°45' E 175°02'  
2019-Apr-11 23:23S 36°22' E 174°53'6 0.3
2019-Apr-11 04:33S 36°25' E 174°46'2 2.2
2019-Apr-11 03:33S 36°27' E 174°48'0 5.0
2019-Apr-11 03:28S 36°27' E 174°47'2 2.7
2019-Apr-11 02:46S 36°29' E 174°46'1 2.5
2019-Apr-11 02:20S 36°30' E 174°46'2 0.4
2019-Apr-10 22:47S 36°30' E 174°44'0 0.0
2019-Apr-10 22:28S 36°30' E 174°44'  

Dump ship's entire track history